sensor_id;sensor_type;location;lat;lon;timestamp;pressure;altitude;pressure_sealevel;temperature;humidity
69630;BME280;56857;52.212;5.496;2023-12-29T00:02:24;100720.03;;;9.18;100.00
69630;BME280;56857;52.212;5.496;2023-12-29T00:04:49;100715.56;;;9.19;100.00
69630;BME280;56857;52.212;5.496;2023-12-29T00:07:15;100732.13;;;9.21;100.00
69630;BME280;56857;52.212;5.496;2023-12-29T00:09:40;100711.59;;;9.23;100.00
69630;BME280;56857;52.212;5.496;2023-12-29T00:12:06;100701.03;;;9.23;100.00
69630;BME280;56857;52.212;5.496;2023-12-29T00:14:32;100699.19;;;9.23;100.00
69630;BME280;56857;52.212;5.496;2023-12-29T00:16:57;100712.09;;;9.26;100.00
69630;BME280;56857;52.212;5.496;2023-12-29T00:19:23;100710.13;;;9.28;100.00
69630;BME280;56857;52.212;5.496;2023-12-29T00:21:48;100712.78;;;9.28;100.00
69630;BME280;56857;52.212;5.496;2023-12-29T00:24:13;100715.25;;;9.30;100.00
69630;BME280;56857;52.212;5.496;2023-12-29T00:26:39;100717.06;;;9.29;100.00
69630;BME280;56857;52.212;5.496;2023-12-29T00:29:04;100718.06;;;9.28;100.00
69630;BME280;56857;52.212;5.496;2023-12-29T00:31:29;100711.94;;;9.28;100.00
69630;BME280;56857;52.212;5.496;2023-12-29T00:33:55;100701.69;;;9.25;100.00
69630;BME280;56857;52.212;5.496;2023-12-29T00:36:20;100696.56;;;9.23;100.00
69630;BME280;56857;52.212;5.496;2023-12-29T00:38:46;100697.56;;;9.22;100.00
69630;BME280;56857;52.212;5.496;2023-12-29T00:41:11;100703.84;;;9.21;100.00
69630;BME280;56857;52.212;5.496;2023-12-29T00:43:36;100698.69;;;9.20;100.00
69630;BME280;56857;52.212;5.496;2023-12-29T00:46:05;100698.88;;;9.18;100.00
69630;BME280;56857;52.212;5.496;2023-12-29T00:48:31;100683.84;;;9.19;100.00
69630;BME280;56857;52.212;5.496;2023-12-29T00:50:57;100668.13;;;9.17;100.00
69630;BME280;56857;52.212;5.496;2023-12-29T00:53:23;100672.75;;;9.15;100.00
69630;BME280;56857;52.212;5.496;2023-12-29T00:55:48;100670.13;;;9.15;100.00
69630;BME280;56857;52.212;5.496;2023-12-29T00:58:14;100682.34;;;9.16;100.00
69630;BME280;56857;52.212;5.496;2023-12-29T01:00:39;100683.00;;;9.18;100.00
69630;BME280;56857;52.212;5.496;2023-12-29T01:03:05;100681.00;;;9.20;100.00
69630;BME280;56857;52.212;5.496;2023-12-29T01:05:30;100676.56;;;9.21;100.00
69630;BME280;56857;52.212;5.496;2023-12-29T01:07:55;100688.63;;;9.23;100.00
69630;BME280;56857;52.212;5.496;2023-12-29T01:10:21;100682.19;;;9.26;100.00
69630;BME280;56857;52.212;5.496;2023-12-29T01:12:46;100685.50;;;9.28;100.00
69630;BME280;56857;52.212;5.496;2023-12-29T01:15:12;100677.38;;;9.29;100.00
69630;BME280;56857;52.212;5.496;2023-12-29T01:17:37;100685.84;;;9.33;100.00
69630;BME280;56857;52.212;5.496;2023-12-29T01:20:02;100680.38;;;9.35;100.00
69630;BME280;56857;52.212;5.496;2023-12-29T01:22:28;100669.59;;;9.36;100.00
69630;BME280;56857;52.212;5.496;2023-12-29T01:24:53;100668.47;;;9.39;100.00
69630;BME280;56857;52.212;5.496;2023-12-29T01:27:18;100676.88;;;9.42;100.00
69630;BME280;56857;52.212;5.496;2023-12-29T01:29:44;100671.25;;;9.45;100.00
69630;BME280;56857;52.212;5.496;2023-12-29T01:32:09;100666.66;;;9.47;100.00
69630;BME280;56857;52.212;5.496;2023-12-29T01:34:34;100660.19;;;9.50;100.00
69630;BME280;56857;52.212;5.496;2023-12-29T01:37:02;100669.63;;;9.52;100.00
69630;BME280;56857;52.212;5.496;2023-12-29T01:39:28;100659.69;;;9.55;100.00
69630;BME280;56857;52.212;5.496;2023-12-29T01:41:55;100651.75;;;9.55;100.00
69630;BME280;56857;52.212;5.496;2023-12-29T01:44:21;100664.97;;;9.55;100.00
69630;BME280;56857;52.212;5.496;2023-12-29T01:46:53;100658.88;;;9.54;100.00
69630;BME280;56857;52.212;5.496;2023-12-29T01:49:20;100662.50;;;9.53;100.00
69630;BME280;56857;52.212;5.496;2023-12-29T01:51:53;100662.31;;;9.55;100.00
69630;BME280;56857;52.212;5.496;2023-12-29T01:54:20;100649.09;;;9.55;100.00
69630;BME280;56857;52.212;5.496;2023-12-29T01:56:47;100647.28;;;9.55;100.00
69630;BME280;56857;52.212;5.496;2023-12-29T01:59:13;100650.78;;;9.56;100.00
69630;BME280;56857;52.212;5.496;2023-12-29T02:01:40;100680.84;;;9.55;100.00
69630;BME280;56857;52.212;5.496;2023-12-29T02:04:06;100655.88;;;9.57;100.00
69630;BME280;56857;52.212;5.496;2023-12-29T02:06:34;100644.47;;;9.57;100.00
69630;BME280;56857;52.212;5.496;2023-12-29T02:09:01;100653.22;;;9.57;100.00
69630;BME280;56857;52.212;5.496;2023-12-29T02:11:26;100664.81;;;9.56;100.00
69630;BME280;56857;52.212;5.496;2023-12-29T02:13:52;100649.75;;;9.57;100.00
69630;BME280;56857;52.212;5.496;2023-12-29T02:16:54;100666.47;;;9.57;100.00
69630;BME280;56857;52.212;5.496;2023-12-29T02:19:36;100664.00;;;9.56;100.00
69630;BME280;56857;52.212;5.496;2023-12-29T02:22:02;100668.28;;;9.57;100.00
69630;BME280;56857;52.212;5.496;2023-12-29T02:24:27;100685.00;;;9.57;100.00
69630;BME280;56857;52.212;5.496;2023-12-29T02:26:58;100669.13;;;9.57;100.00
69630;BME280;56857;52.212;5.496;2023-12-29T02:29:28;100669.13;;;9.57;100.00
69630;BME280;56857;52.212;5.496;2023-12-29T02:31:57;100676.38;;;9.55;100.00
69630;BME280;56857;52.212;5.496;2023-12-29T02:34:24;100671.59;;;9.50;100.00
69630;BME280;56857;52.212;5.496;2023-12-29T02:36:50;100679.88;;;9.47;100.00
69630;BME280;56857;52.212;5.496;2023-12-29T02:39:16;100683.66;;;9.45;100.00
69630;BME280;56857;52.212;5.496;2023-12-29T02:41:42;100659.03;;;9.44;100.00
69630;BME280;56857;52.212;5.496;2023-12-29T02:44:07;100669.13;;;9.41;100.00
69630;BME280;56857;52.212;5.496;2023-12-29T02:46:33;100668.31;;;9.40;100.00
69630;BME280;56857;52.212;5.496;2023-12-29T02:48:58;100678.22;;;9.38;100.00
69630;BME280;56857;52.212;5.496;2023-12-29T02:51:23;100679.88;;;9.39;100.00
69630;BME280;56857;52.212;5.496;2023-12-29T02:53:49;100667.63;;;9.38;100.00
69630;BME280;56857;52.212;5.496;2023-12-29T02:56:14;100672.94;;;9.38;100.00
69630;BME280;56857;52.212;5.496;2023-12-29T02:58:39;100666.81;;;9.38;100.00
69630;BME280;56857;52.212;5.496;2023-12-29T03:01:05;100673.09;;;9.37;100.00
69630;BME280;56857;52.212;5.496;2023-12-29T03:03:30;100666.16;;;9.36;100.00
69630;BME280;56857;52.212;5.496;2023-12-29T03:05:55;100669.59;;;9.36;100.00
69630;BME280;56857;52.212;5.496;2023-12-29T03:08:21;100662.84;;;9.34;100.00
69630;BME280;56857;52.212;5.496;2023-12-29T03:10:46;100653.25;;;9.33;100.00
69630;BME280;56857;52.212;5.496;2023-12-29T03:13:11;100664.69;;;9.33;100.00
69630;BME280;56857;52.212;5.496;2023-12-29T03:15:37;100665.66;;;9.32;100.00
69630;BME280;56857;52.212;5.496;2023-12-29T03:18:02;100672.75;;;9.32;100.00
69630;BME280;56857;52.212;5.496;2023-12-29T03:20:27;100685.16;;;9.31;100.00
69630;BME280;56857;52.212;5.496;2023-12-29T03:22:52;100676.41;;;9.31;100.00
69630;BME280;56857;52.212;5.496;2023-12-29T03:25:18;100687.81;;;9.31;100.00
69630;BME280;56857;52.212;5.496;2023-12-29T03:27:43;100683.34;;;9.32;100.00
69630;BME280;56857;52.212;5.496;2023-12-29T03:30:09;100677.38;;;9.29;100.00
69630;BME280;56857;52.212;5.496;2023-12-29T03:32:35;100692.44;;;9.29;100.00
69630;BME280;56857;52.212;5.496;2023-12-29T03:35:00;100683.00;;;9.26;100.00
69630;BME280;56857;52.212;5.496;2023-12-29T03:37:25;100695.59;;;9.24;100.00
69630;BME280;56857;52.212;5.496;2023-12-29T03:39:51;100688.63;;;9.23;100.00
69630;BME280;56857;52.212;5.496;2023-12-29T03:42:16;100684.50;;;9.21;100.00
69630;BME280;56857;52.212;5.496;2023-12-29T03:44:41;100687.31;;;9.19;100.00
69630;BME280;56857;52.212;5.496;2023-12-29T03:47:08;100681.19;;;9.19;100.00
69630;BME280;56857;52.212;5.496;2023-12-29T03:49:33;100668.13;;;9.17;100.00
69630;BME280;56857;52.212;5.496;2023-12-29T03:51:58;100678.69;;;9.17;100.00
69630;BME280;56857;52.212;5.496;2023-12-29T03:54:24;100668.47;;;9.14;100.00
69630;BME280;56857;52.212;5.496;2023-12-29T03:56:49;100675.41;;;9.15;100.00
69630;BME280;56857;52.212;5.496;2023-12-29T03:59:14;100662.34;;;9.14;100.00
69630;BME280;56857;52.212;5.496;2023-12-29T04:01:40;100644.00;;;9.12;100.00
69630;BME280;56857;52.212;5.496;2023-12-29T04:04:05;100650.94;;;9.13;100.00
69630;BME280;56857;52.212;5.496;2023-12-29T04:06:30;100652.94;;;9.11;100.00
69630;BME280;56857;52.212;5.496;2023-12-29T04:08:55;100649.44;;;9.11;100.00
69630;BME280;56857;52.212;5.496;2023-12-29T04:11:21;100650.44;;;9.10;100.00
69630;BME280;56857;52.212;5.496;2023-12-29T04:13:46;100653.75;;;9.12;100.00
69630;BME280;56857;52.212;5.496;2023-12-29T04:16:11;100659.03;;;9.12;100.00
69630;BME280;56857;52.212;5.496;2023-12-29T04:18:37;100656.41;;;9.12;100.00
69630;BME280;56857;52.212;5.496;2023-12-29T04:21:02;100657.56;;;9.09;100.00
69630;BME280;56857;52.212;5.496;2023-12-29T04:23:28;100651.44;;;9.09;100.00
69630;BME280;56857;52.212;5.496;2023-12-29T04:25:53;100656.72;;;9.09;100.00
69630;BME280;56857;52.212;5.496;2023-12-29T04:28:18;100666.31;;;9.10;100.00
69630;BME280;56857;52.212;5.496;2023-12-29T04:30:44;100655.41;;;9.13;100.00
69630;BME280;56857;52.212;5.496;2023-12-29T04:33:09;100654.25;;;9.15;100.00
69630;BME280;56857;52.212;5.496;2023-12-29T04:35:34;100662.00;;;9.17;100.00
69630;BME280;56857;52.212;5.496;2023-12-29T04:38:00;100659.69;;;9.14;100.00
69630;BME280;56857;52.212;5.496;2023-12-29T04:40:25;100661.84;;;9.10;100.00
69630;BME280;56857;52.212;5.496;2023-12-29T04:42:50;100651.75;;;9.05;100.00
69630;BME280;56857;52.212;5.496;2023-12-29T04:45:15;100660.84;;;9.03;100.00
69630;BME280;56857;52.212;5.496;2023-12-29T04:47:41;100663.63;;;9.01;100.00
69630;BME280;56857;52.212;5.496;2023-12-29T04:50:07;100667.13;;;9.02;100.00
69630;BME280;56857;52.212;5.496;2023-12-29T04:52:32;100664.63;;;9.00;100.00
69630;BME280;56857;52.212;5.496;2023-12-29T04:54:57;100655.22;;;8.98;100.00
69630;BME280;56857;52.212;5.496;2023-12-29T04:57:23;100642.81;;;8.98;100.00
69630;BME280;56857;52.212;5.496;2023-12-29T04:59:48;100650.75;;;8.98;100.00
69630;BME280;56857;52.212;5.496;2023-12-29T05:02:13;100645.63;;;8.97;100.00
69630;BME280;56857;52.212;5.496;2023-12-29T05:04:39;100655.38;;;8.96;100.00
69630;BME280;56857;52.212;5.496;2023-12-29T05:07:08;100644.13;;;8.94;100.00
69630;BME280;56857;52.212;5.496;2023-12-29T05:09:33;100653.91;;;8.94;100.00
69630;BME280;56857;52.212;5.496;2023-12-29T05:11:59;100644.31;;;8.93;100.00
69630;BME280;56857;52.212;5.496;2023-12-29T05:14:24;100651.25;;;8.94;100.00
69630;BME280;56857;52.212;5.496;2023-12-29T05:16:49;100645.97;;;8.94;100.00
69630;BME280;56857;52.212;5.496;2023-12-29T05:19:15;100654.91;;;8.93;100.00
69630;BME280;56857;52.212;5.496;2023-12-29T05:21:40;100645.16;;;8.93;100.00
69630;BME280;56857;52.212;5.496;2023-12-29T05:24:05;100658.34;;;8.93;100.00
69630;BME280;56857;52.212;5.496;2023-12-29T05:26:31;100669.75;;;8.94;100.00
69630;BME280;56857;52.212;5.496;2023-12-29T05:28:56;100652.06;;;8.94;100.00
69630;BME280;56857;52.212;5.496;2023-12-29T05:31:21;100678.38;;;8.96;100.00
69630;BME280;56857;52.212;5.496;2023-12-29T05:33:47;100659.69;;;8.97;100.00
69630;BME280;56857;52.212;5.496;2023-12-29T05:36:12;100669.09;;;9.00;100.00
69630;BME280;56857;52.212;5.496;2023-12-29T05:38:37;100659.34;;;9.00;100.00
69630;BME280;56857;52.212;5.496;2023-12-29T05:41:04;100661.00;;;9.01;100.00
69630;BME280;56857;52.212;5.496;2023-12-29T05:43:30;100659.03;;;9.03;100.00
69630;BME280;56857;52.212;5.496;2023-12-29T05:45:56;100661.53;;;9.05;100.00
69630;BME280;56857;52.212;5.496;2023-12-29T05:48:22;100674.75;;;9.05;100.00
69630;BME280;56857;52.212;5.496;2023-12-29T05:50:47;100665.81;;;9.06;100.00
69630;BME280;56857;52.212;5.496;2023-12-29T05:53:12;100655.91;;;9.08;100.00
69630;BME280;56857;52.212;5.496;2023-12-29T05:55:38;100663.00;;;9.08;100.00
69630;BME280;56857;52.212;5.496;2023-12-29T05:58:04;100670.91;;;9.08;100.00
69630;BME280;56857;52.212;5.496;2023-12-29T06:00:29;100671.09;;;9.06;100.00
69630;BME280;56857;52.212;5.496;2023-12-29T06:02:54;100662.03;;;9.09;100.00
69630;BME280;56857;52.212;5.496;2023-12-29T06:05:19;100661.19;;;9.08;100.00
69630;BME280;56857;52.212;5.496;2023-12-29T06:07:45;100660.00;;;9.11;100.00
69630;BME280;56857;52.212;5.496;2023-12-29T06:10:11;100647.66;;;9.11;100.00
69630;BME280;56857;52.212;5.496;2023-12-29T06:12:36;100651.13;;;9.12;100.00
69630;BME280;56857;52.212;5.496;2023-12-29T06:15:02;100659.19;;;9.10;100.00
69630;BME280;56857;52.212;5.496;2023-12-29T06:17:27;100656.41;;;9.12;100.00
69630;BME280;56857;52.212;5.496;2023-12-29T06:19:52;100659.88;;;9.12;100.00
69630;BME280;56857;52.212;5.496;2023-12-29T06:22:18;100663.34;;;9.13;100.00
69630;BME280;56857;52.212;5.496;2023-12-29T06:24:43;100670.13;;;9.15;100.00
69630;BME280;56857;52.212;5.496;2023-12-29T06:27:09;100655.91;;;9.16;100.00
69630;BME280;56857;52.212;5.496;2023-12-29T06:29:34;100655.91;;;9.16;100.00
69630;BME280;56857;52.212;5.496;2023-12-29T06:32:00;100649.59;;;9.17;100.00
69630;BME280;56857;52.212;5.496;2023-12-29T06:34:26;100653.09;;;9.18;100.00
69630;BME280;56857;52.212;5.496;2023-12-29T06:36:51;100656.38;;;9.20;100.00
69630;BME280;56857;52.212;5.496;2023-12-29T06:39:16;100661.53;;;9.21;100.00
69630;BME280;56857;52.212;5.496;2023-12-29T06:41:42;100659.69;;;9.22;100.00
69630;BME280;56857;52.212;5.496;2023-12-29T06:44:07;100654.22;;;9.23;100.00
69630;BME280;56857;52.212;5.496;2023-12-29T06:46:33;100653.25;;;9.24;100.00
69630;BME280;56857;52.212;5.496;2023-12-29T06:48:58;100640.88;;;9.25;100.00
69630;BME280;56857;52.212;5.496;2023-12-29T06:51:23;100634.75;;;9.24;100.00
69630;BME280;56857;52.212;5.496;2023-12-29T06:53:49;100638.22;;;9.25;100.00
69630;BME280;56857;52.212;5.496;2023-12-29T06:56:17;100634.75;;;9.24;100.00
69630;BME280;56857;52.212;5.496;2023-12-29T06:58:44;100640.03;;;9.24;100.00
69630;BME280;56857;52.212;5.496;2023-12-29T07:01:09;100632.25;;;9.23;100.00
69630;BME280;56857;52.212;5.496;2023-12-29T07:03:34;100631.28;;;9.24;100.00
69630;BME280;56857;52.212;5.496;2023-12-29T07:06:00;100633.94;;;9.24;100.00
69630;BME280;56857;52.212;5.496;2023-12-29T07:08:26;100641.88;;;9.24;100.00
69630;BME280;56857;52.212;5.496;2023-12-29T07:10:51;100633.94;;;9.24;100.00
69630;BME280;56857;52.212;5.496;2023-12-29T07:13:16;100636.56;;;9.24;100.00
69630;BME280;56857;52.212;5.496;2023-12-29T07:15:42;100647.31;;;9.22;100.00
69630;BME280;56857;52.212;5.496;2023-12-29T07:18:07;100637.53;;;9.23;100.00
69630;BME280;56857;52.212;5.496;2023-12-29T07:20:32;100644.66;;;9.22;100.00
69630;BME280;56857;52.212;5.496;2023-12-29T07:22:58;100647.31;;;9.22;100.00
69630;BME280;56857;52.212;5.496;2023-12-29T07:25:23;100642.69;;;9.24;100.00
69630;BME280;56857;52.212;5.496;2023-12-29T07:27:48;100639.22;;;9.24;100.00
69630;BME280;56857;52.212;5.496;2023-12-29T07:30:14;100643.66;;;9.23;100.00
69630;BME280;56857;52.212;5.496;2023-12-29T07:32:39;100653.75;;;9.20;100.00
69630;BME280;56857;52.212;5.496;2023-12-29T07:35:05;100653.75;;;9.20;100.00
69630;BME280;56857;52.212;5.496;2023-12-29T07:37:30;100652.91;;;9.19;100.00
69630;BME280;56857;52.212;5.496;2023-12-29T07:39:56;100655.56;;;9.19;100.00
69630;BME280;56857;52.212;5.496;2023-12-29T07:42:21;100646.00;;;9.18;100.00
69630;BME280;56857;52.212;5.496;2023-12-29T07:44:46;100652.09;;;9.19;100.00
69630;BME280;56857;52.212;5.496;2023-12-29T07:47:12;100643.16;;;9.20;100.00
69630;BME280;56857;52.212;5.496;2023-12-29T07:49:37;100657.22;;;9.20;100.00
69630;BME280;56857;52.212;5.496;2023-12-29T07:52:02;100650.28;;;9.19;100.00
69630;BME280;56857;52.212;5.496;2023-12-29T07:54:28;100649.28;;;9.20;100.00
69630;BME280;56857;52.212;5.496;2023-12-29T07:56:53;100650.13;;;9.21;100.00
69630;BME280;56857;52.212;5.496;2023-12-29T07:59:18;100649.13;;;9.22;100.00
69630;BME280;56857;52.212;5.496;2023-12-29T08:01:44;100653.59;;;9.21;100.00
69630;BME280;56857;52.212;5.496;2023-12-29T08:04:09;100654.41;;;9.22;100.00
69630;BME280;56857;52.212;5.496;2023-12-29T08:06:37;100657.88;;;9.22;100.00
69630;BME280;56857;52.212;5.496;2023-12-29T08:09:02;100664.00;;;9.23;100.00
69630;BME280;56857;52.212;5.496;2023-12-29T08:11:28;100665.66;;;9.24;100.00
69630;BME280;56857;52.212;5.496;2023-12-29T08:13:53;100664.66;;;9.25;100.00
69630;BME280;56857;52.212;5.496;2023-12-29T08:16:18;100662.84;;;9.25;100.00
69630;BME280;56857;52.212;5.496;2023-12-29T08:18:44;100655.72;;;9.26;100.00
69630;BME280;56857;52.212;5.496;2023-12-29T08:21:16;100661.03;;;9.26;100.00
69630;BME280;56857;52.212;5.496;2023-12-29T08:23:41;100660.88;;;9.27;100.00
69630;BME280;56857;52.212;5.496;2023-12-29T08:26:06;100672.28;;;9.28;100.00
69630;BME280;56857;52.212;5.496;2023-12-29T08:28:31;100675.59;;;9.30;100.00
69630;BME280;56857;52.212;5.496;2023-12-29T08:30:57;100673.59;;;9.32;100.00
69630;BME280;56857;52.212;5.496;2023-12-29T08:33:22;100667.31;;;9.33;100.00
69630;BME280;56857;52.212;5.496;2023-12-29T08:35:47;100675.25;;;9.33;100.00
69630;BME280;56857;52.212;5.496;2023-12-29T08:38:13;100664.50;;;9.35;100.00
69630;BME280;56857;52.212;5.496;2023-12-29T08:40:38;100663.50;;;9.36;100.00
69630;BME280;56857;52.212;5.496;2023-12-29T08:43:03;100655.75;;;9.34;100.00
69630;BME280;56857;52.212;5.496;2023-12-29T08:45:29;100645.16;;;9.34;100.00
69630;BME280;56857;52.212;5.496;2023-12-29T08:47:54;100646.97;;;9.34;100.00
69630;BME280;56857;52.212;5.496;2023-12-29T08:50:20;100649.78;;;9.32;100.00
69630;BME280;56857;52.212;5.496;2023-12-29T08:52:45;100647.97;;;9.33;100.00
69630;BME280;56857;52.212;5.496;2023-12-29T08:55:10;100647.13;;;9.32;100.00
69630;BME280;56857;52.212;5.496;2023-12-29T08:57:36;100651.59;;;9.32;100.00
69630;BME280;56857;52.212;5.496;2023-12-29T09:00:01;100660.22;;;9.34;100.00
69630;BME280;56857;52.212;5.496;2023-12-29T09:02:26;100656.06;;;9.31;100.00
69630;BME280;56857;52.212;5.496;2023-12-29T09:04:51;100658.53;;;9.33;100.00
69630;BME280;56857;52.212;5.496;2023-12-29T09:07:17;100654.91;;;9.34;100.00
69630;BME280;56857;52.212;5.496;2023-12-29T09:09:42;100662.69;;;9.35;100.00
69630;BME280;56857;52.212;5.496;2023-12-29T09:12:07;100669.59;;;9.36;100.00
69630;BME280;56857;52.212;5.496;2023-12-29T09:14:33;100672.44;;;9.35;100.00
69630;BME280;56857;52.212;5.496;2023-12-29T09:16:58;100665.50;;;9.34;100.00
69630;BME280;56857;52.212;5.496;2023-12-29T09:19:23;100678.72;;;9.34;100.00
69630;BME280;56857;52.212;5.496;2023-12-29T09:21:49;100678.88;;;9.32;100.00
69630;BME280;56857;52.212;5.496;2023-12-29T09:24:14;100681.69;;;9.31;100.00
69630;BME280;56857;52.212;5.496;2023-12-29T09:26:39;100681.03;;;9.28;100.00
69630;BME280;56857;52.212;5.496;2023-12-29T09:29:05;100683.69;;;9.28;100.00
69630;BME280;56857;52.212;5.496;2023-12-29T09:31:30;100691.59;;;9.28;100.00
69630;BME280;56857;52.212;5.496;2023-12-29T09:33:55;100682.66;;;9.29;100.00
69630;BME280;56857;52.212;5.496;2023-12-29T09:36:20;100682.53;;;9.31;100.00
69630;BME280;56857;52.212;5.496;2023-12-29T09:38:46;100688.31;;;9.35;100.00
69630;BME280;56857;52.212;5.496;2023-12-29T09:41:14;100687.16;;;9.37;100.00
69630;BME280;56857;52.212;5.496;2023-12-29T09:43:40;100686.97;;;9.39;100.00
69630;BME280;56857;52.212;5.496;2023-12-29T09:46:08;100693.63;;;9.43;100.00
69630;BME280;56857;52.212;5.496;2023-12-29T09:48:34;100681.03;;;9.45;100.00
69630;BME280;56857;52.212;5.496;2023-12-29T09:51:03;100689.44;;;9.48;100.00
69630;BME280;56857;52.212;5.496;2023-12-29T09:53:30;100700.56;;;9.52;100.00
69630;BME280;56857;52.212;5.496;2023-12-29T09:55:57;100691.44;;;9.55;100.00
69630;BME280;56857;52.212;5.496;2023-12-29T09:58:24;100695.44;;;9.59;100.00
69630;BME280;56857;52.212;5.496;2023-12-29T10:00:49;100697.75;;;9.62;100.00
69630;BME280;56857;52.212;5.496;2023-12-29T10:03:15;100706.16;;;9.65;100.00
69630;BME280;56857;52.212;5.496;2023-12-29T10:05:40;100684.00;;;9.66;100.00
69630;BME280;56857;52.212;5.496;2023-12-29T10:08:07;100696.91;;;9.69;100.00
69630;BME280;56857;52.212;5.496;2023-12-29T10:10:35;100701.84;;;9.72;100.00
69630;BME280;56857;52.212;5.496;2023-12-29T10:13:03;100692.75;;;9.75;100.00
69630;BME280;56857;52.212;5.496;2023-12-29T10:15:50;100688.97;;;9.78;100.00
69630;BME280;56857;52.212;5.496;2023-12-29T10:18:30;100690.25;;;9.82;100.00
69630;BME280;56857;52.212;5.496;2023-12-29T10:24:14;100702.00;;;9.79;100.00
69630;BME280;56857;52.212;5.496;2023-12-29T10:26:41;100692.56;;;9.77;100.00
69630;BME280;56857;52.212;5.496;2023-12-29T10:29:07;100704.31;;;9.74;100.00
69630;BME280;56857;52.212;5.496;2023-12-29T10:31:32;100685.31;;;9.70;100.00
69630;BME280;56857;52.212;5.496;2023-12-29T10:34:25;100682.50;;;9.72;100.00
69630;BME280;56857;52.212;5.496;2023-12-29T10:36:51;100695.22;;;9.77;100.00
69630;BME280;56857;52.212;5.496;2023-12-29T10:39:16;100679.19;;;9.78;100.00
69630;BME280;56857;52.212;5.496;2023-12-29T10:41:42;100701.69;;;9.82;100.00
69630;BME280;56857;52.212;5.496;2023-12-29T10:44:07;100719.06;;;9.85;100.00
69630;BME280;56857;52.212;5.496;2023-12-29T10:46:33;100711.78;;;9.87;100.00
69630;BME280;56857;52.212;5.496;2023-12-29T10:51:33;100706.63;;;9.93;100.00
69630;BME280;56857;52.212;5.496;2023-12-29T10:54:02;100709.78;;;9.97;100.00
69630;BME280;56857;52.212;5.496;2023-12-29T10:56:27;100713.72;;;10.01;100.00
69630;BME280;56857;52.212;5.496;2023-12-29T10:59:03;100722.81;;;10.07;100.00
69630;BME280;56857;52.212;5.496;2023-12-29T11:01:33;100713.72;;;10.09;100.00
69630;BME280;56857;52.212;5.496;2023-12-29T11:04:04;100721.66;;;10.09;100.00
69630;BME280;56857;52.212;5.496;2023-12-29T11:06:39;100724.81;;;10.05;100.00
69630;BME280;56857;52.212;5.496;2023-12-29T11:09:05;100728.59;;;10.02;100.00
69630;BME280;56857;52.212;5.496;2023-12-29T11:11:31;100729.63;;;10.01;100.00
69630;BME280;56857;52.212;5.496;2023-12-29T11:13:57;100725.31;;;10.00;100.00
69630;BME280;56857;52.212;5.496;2023-12-29T11:16:24;100726.47;;;9.97;100.00
69630;BME280;56857;52.212;5.496;2023-12-29T11:18:50;100725.31;;;10.00;100.00
69630;BME280;56857;52.212;5.496;2023-12-29T11:21:16;100726.28;;;9.99;100.00
69630;BME280;56857;52.212;5.496;2023-12-29T11:23:41;100738.56;;;10.00;100.00
69630;BME280;56857;52.212;5.496;2023-12-29T11:26:07;100739.38;;;10.01;100.00
69630;BME280;56857;52.212;5.496;2023-12-29T11:28:32;100759.41;;;10.03;100.00
69630;BME280;56857;52.212;5.496;2023-12-29T11:30:58;100736.41;;;10.04;100.00
69630;BME280;56857;52.212;5.496;2023-12-29T11:33:27;100743.53;;;10.03;100.00
69630;BME280;56857;52.212;5.496;2023-12-29T11:36:02;100747.00;;;10.04;100.00
69630;BME280;56857;52.212;5.496;2023-12-29T11:38:50;100736.06;;;10.07;100.00
69630;BME280;56857;52.212;5.496;2023-12-29T11:41:35;100738.84;;;10.13;100.00
69630;BME280;56857;52.212;5.496;2023-12-29T11:44:03;100741.66;;;10.20;100.00
69630;BME280;56857;52.212;5.496;2023-12-29T11:46:35;100742.13;;;10.24;100.00
69630;BME280;56857;52.212;5.496;2023-12-29T11:49:01;100732.06;;;10.27;100.00
69630;BME280;56857;52.212;5.496;2023-12-29T11:53:54;100729.75;;;10.32;100.00
69630;BME280;56857;52.212;5.496;2023-12-29T11:56:20;100747.13;;;10.35;100.00
69630;BME280;56857;52.212;5.496;2023-12-29T11:58:45;100737.50;;;10.34;100.00
69630;BME280;56857;52.212;5.496;2023-12-29T12:01:10;100736.19;;;10.38;100.00
69630;BME280;56857;52.212;5.496;2023-12-29T12:03:36;100739.66;;;10.38;100.00
69630;BME280;56857;52.212;5.496;2023-12-29T12:06:02;100736.34;;;10.36;100.00
69630;BME280;56857;52.212;5.496;2023-12-29T12:10:54;100718.94;;;10.34;100.00
69630;BME280;56857;52.212;5.496;2023-12-29T12:13:42;100724.25;;;10.34;100.00
69630;BME280;56857;52.212;5.496;2023-12-29T12:16:08;100727.75;;;10.34;100.00
69630;BME280;56857;52.212;5.496;2023-12-29T12:18:33;100719.63;;;10.36;100.00
69630;BME280;56857;52.212;5.496;2023-12-29T12:20:59;100726.75;;;10.35;100.00
69630;BME280;56857;52.212;5.496;2023-12-29T12:23:27;100718.63;;;10.37;100.00
69630;BME280;56857;52.212;5.496;2023-12-29T12:25:58;100713.31;;;10.37;100.00
69630;BME280;56857;52.212;5.496;2023-12-29T12:28:26;100712.34;;;10.38;100.00
69630;BME280;56857;52.212;5.496;2023-12-29T12:30:51;100714.81;;;10.39;100.00
69630;BME280;56857;52.212;5.496;2023-12-29T12:33:16;100706.03;;;10.39;100.00
69630;BME280;56857;52.212;5.496;2023-12-29T12:35:41;100706.84;;;10.39;100.00
69630;BME280;56857;52.212;5.496;2023-12-29T12:38:14;100708.69;;;10.39;100.00
69630;BME280;56857;52.212;5.496;2023-12-29T12:40:40;100708.69;;;10.39;100.00
69630;BME280;56857;52.212;5.496;2023-12-29T12:43:06;100712.00;;;10.41;100.00
69630;BME280;56857;52.212;5.496;2023-12-29T12:45:41;100721.59;;;10.42;100.00
69630;BME280;56857;52.212;5.496;2023-12-29T12:48:19;100702.88;;;10.43;100.00
69630;BME280;56857;52.212;5.496;2023-12-29T12:50:46;100693.09;;;10.44;100.00
69630;BME280;56857;52.212;5.496;2023-12-29T12:53:12;100693.09;;;10.44;100.00
69630;BME280;56857;52.212;5.496;2023-12-29T12:55:38;100706.34;;;10.44;100.00